Terminal Aerodrome Forecast
Issued by NWS Mt. Holly, NJ

Home | Current Version | Previous Version | Text Only | Print | Product List | Glossary On
Versions: 1 2 3 4 5 6 7 8 9 10 11 12
000
FTUS41 KPHI 252320
TAFTTN
TAF
KTTN 252320Z 2600/2624 13006KT P6SM FEW250
     FM260900 VRB03KT 5SM BR BKN009
     FM261400 05004KT P6SM BKN250
     FM262300 11005KT P6SM BKN250=

USA.gov is the U.S. government's official web portal to all federal, state and local government web resources and services.